Time;durP1;ratioP1;P1;durP2;ratioP2;P2;SDS_P1;SDS_P2;PMS_P1;PMS_P2;Temp;Humidity;BMP_temperature;BMP_pressure;BME280_temperature;BME280_humidity;BME280_pressure;Samples;Min_cycle;Max_cycle;Signal;HPM_P1;HPM_P2
2021/12/07 00:01:17;;;;;;;2.97;2.50;;;4.60;99.90;;;;;;4990759;28;20856;-70
2021/12/07 00:03:43;;;;;;;2.30;2.10;;;4.50;99.90;;;;;;4991860;28;20173;-70
2021/12/07 00:06:09;;;;;;;2.27;2.07;;;4.60;99.90;;;;;;4991591;28;20502;-70
2021/12/07 00:08:36;;;;;;;3.03;2.27;;;4.50;99.90;;;;;;4992108;28;20684;-69
2021/12/07 00:11:01;;;;;;;1.90;1.80;;;4.60;99.90;;;;;;4990705;28;20498;-70
2021/12/07 00:13:32;;;;;;;2.63;2.20;;;4.60;99.90;;;;;;4991959;28;20458;-70
2021/12/07 00:15:58;;;;;;;2.20;2.00;;;4.60;99.90;;;;;;4991872;28;20393;-70
2021/12/07 00:18:23;;;;;;;2.10;1.90;;;4.60;99.90;;;;;;4990433;28;20419;-70
2021/12/07 00:20:49;;;;;;;2.20;2.00;;;4.60;99.90;;;;;;4990433;28;20273;-70
2021/12/07 00:23:16;;;;;;;2.03;1.93;;;4.60;99.90;;;;;;4991939;28;20182;-70
2021/12/07 00:25:42;;;;;;;2.37;2.23;;;4.60;99.90;;;;;;4991727;28;20203;-70
2021/12/07 00:28:08;;;;;;;2.53;2.30;;;4.60;99.90;;;;;;4990602;28;20421;-70
2021/12/07 00:30:35;;;;;;;2.20;2.10;;;4.60;99.90;;;;;;4991855;28;20431;-70
2021/12/07 00:33:13;;;;;;;2.10;2.00;;;4.60;99.90;;;;;;4990148;28;20593;-70
2021/12/07 00:35:39;;;;;;;3.23;2.93;;;4.60;99.90;;;;;;4991636;28;20404;-70
2021/12/07 00:38:09;;;;;;;2.60;2.40;;;4.60;99.90;;;;;;4991921;28;20404;-70
2021/12/07 00:40:36;;;;;;;2.60;2.40;;;4.60;99.90;;;;;;5013149;22;20511;-70
2021/12/07 00:43:02;;;;;;;2.37;2.17;;;4.60;99.90;;;;;;4995203;28;20442;-70
2021/12/07 00:45:31;;;;;;;2.43;2.23;;;4.60;99.90;;;;;;4992353;28;20768;-69
2021/12/07 00:47:57;;;;;;;3.53;3.10;;;4.50;99.90;;;;;;4991069;28;20422;-69
2021/12/07 00:50:24;;;;;;;2.70;2.47;;;4.50;99.90;;;;;;4992142;28;20906;-70
2021/12/07 00:52:50;;;;;;;2.67;2.47;;;4.50;99.90;;;;;;4993172;28;20287;-70
2021/12/07 00:55:20;;;;;;;2.80;2.60;;;4.50;99.90;;;;;;4992011;28;20506;-71
2021/12/07 00:57:46;;;;;;;3.20;2.90;;;4.50;99.90;;;;;;4992346;28;20155;-70
2021/12/07 01:00:15;;;;;;;2.23;2.13;;;4.40;99.90;;;;;;4992127;28;20403;-70
2021/12/07 01:02:41;;;;;;;3.23;2.93;;;4.30;99.90;;;;;;4992484;28;20551;-71
2021/12/07 01:05:15;;;;;;;2.80;2.60;;;4.30;99.90;;;;;;4992173;28;20475;-71
2021/12/07 01:26:34;;;;;;;4.13;3.67;;;3.50;99.90;;;;;;4996183;28;20897;-70
2021/12/07 01:29:00;;;;;;;5.77;3.73;;;3.40;99.90;;;;;;4995725;28;20423;-70
2021/12/07 01:31:36;;;;;;;4.27;3.87;;;3.40;99.90;;;;;;4995531;28;20192;-70
2021/12/07 01:34:12;;;;;;;4.00;3.23;;;3.40;99.90;;;;;;4996289;28;20192;-70
2021/12/07 01:51:07;;;;;;;3.90;3.60;;;3.90;99.90;;;;;;4995103;28;20415;-70
2021/12/07 02:01:00;;;;;;;3.80;3.50;;;3.50;99.90;;;;;;4994555;28;20439;-70
2021/12/07 02:03:27;;;;;;;4.10;3.70;;;3.50;99.90;;;;;;4994389;28;20409;-70
2021/12/07 02:05:53;;;;;;;4.37;3.97;;;3.60;99.90;;;;;;4993835;28;20478;-71
2021/12/07 02:08:19;;;;;;;4.70;4.20;;;3.70;99.90;;;;;;4994575;28;20930;-69
2021/12/07 02:10:45;;;;;;;3.33;3.13;;;3.70;99.90;;;;;;4993934;28;20297;-70
2021/12/07 02:14:14;;;;;;;3.70;3.40;;;3.70;99.90;;;;;;4998719;28;20884;-69
2021/12/07 02:16:09;;;;;;;4.40;4.07;;;3.70;99.90;;;;;;4998161;28;20451;-69
2021/12/07 02:18:34;;;;;;;4.10;3.70;;;3.70;99.90;;;;;;5006686;28;21006;-70
2021/12/07 02:21:21;;;;;;;4.43;4.00;;;3.80;99.90;;;;;;5017353;28;20520;-70
2021/12/07 02:23:47;;;;;;;3.63;3.33;;;3.90;99.90;;;;;;5014256;28;20180;-69
2021/12/07 02:26:13;;;;;;;3.73;3.43;;;3.80;99.90;;;;;;5013754;28;20419;-70
2021/12/07 02:28:40;;;;;;;5.97;3.33;;;3.90;99.90;;;;;;5012245;28;20453;-70
2021/12/07 02:31:07;;;;;;;4.10;3.40;;;3.80;99.90;;;;;;5013522;28;20926;-69
2021/12/07 02:33:33;;;;;;;3.33;3.03;;;3.80;99.90;;;;;;5013318;28;20459;-69
2021/12/07 02:35:59;;;;;;;3.47;3.17;;;3.80;99.90;;;;;;4996307;28;20431;-70
2021/12/07 02:38:25;;;;;;;3.30;3.10;;;3.80;99.90;;;;;;4993762;28;20259;-70
2021/12/07 02:40:50;;;;;;;3.70;3.40;;;3.80;99.90;;;;;;5002162;28;20456;-70
2021/12/07 02:43:16;;;;;;;4.23;3.83;;;3.80;99.90;;;;;;5013628;28;20181;-69
2021/12/07 02:45:42;;;;;;;4.00;3.60;;;3.90;99.90;;;;;;5013115;28;20181;-68
2021/12/07 02:48:07;;;;;;;4.63;4.20;;;3.90;99.90;;;;;;5012272;28;20181;-69
2021/12/07 02:50:33;;;;;;;5.73;5.23;;;3.90;99.90;;;;;;5011765;28;20188;-70
2021/12/07 02:53:00;;;;;;;5.20;4.70;;;3.80;99.90;;;;;;5012076;28;20216;-69
2021/12/07 02:55:26;;;;;;;6.67;5.57;;;3.90;99.90;;;;;;5013319;28;20432;-68
2021/12/07 02:57:52;;;;;;;5.93;5.33;;;3.90;99.90;;;;;;5013121;28;20442;-69
2021/12/07 03:00:23;;;;;;;6.13;5.60;;;4.00;99.90;;;;;;5013200;28;20812;-69
2021/12/07 03:03:01;;;;;;;7.10;6.10;;;3.90;99.90;;;;;;5011542;28;20286;-69
2021/12/07 03:05:54;;;;;;;7.57;6.73;;;3.90;99.90;;;;;;5013081;28;20419;-70
2021/12/07 03:27:28;;;;;;;12.23;9.77;;;4.10;99.90;;;;;;5013174;28;20404;-70
2021/12/07 03:29:54;;;;;;;12.83;9.37;;;4.10;99.90;;;;;;5012910;28;20786;-70
2021/12/07 03:32:20;;;;;;;12.17;10.10;;;4.10;99.90;;;;;;5012250;28;20969;-69
2021/12/07 03:34:45;;;;;;;12.97;9.33;;;4.10;99.90;;;;;;4998504;28;20544;-69
2021/12/07 03:37:11;;;;;;;13.83;10.37;;;4.10;99.90;;;;;;4992157;28;20257;-69
2021/12/07 03:39:36;;;;;;;12.67;9.87;;;4.20;99.90;;;;;;4992018;28;20250;-69
2021/12/07 03:42:02;;;;;;;15.17;11.23;;;4.30;99.90;;;;;;4992403;28;20213;-70
2021/12/07 03:44:28;;;;;;;12.33;9.73;;;4.30;99.90;;;;;;4992365;28;20548;-70
2021/12/07 03:46:53;;;;;;;12.67;9.13;;;4.40;99.90;;;;;;4992555;28;20308;-70
2021/12/07 03:49:19;;;;;;;11.27;9.50;;;4.50;99.90;;;;;;4991345;28;20760;-69
2021/12/07 03:51:44;;;;;;;14.50;9.93;;;4.50;99.90;;;;;;4992283;28;20207;-70
2021/12/07 03:54:10;;;;;;;12.33;9.73;;;4.50;99.90;;;;;;4991341;28;20166;-70
2021/12/07 03:56:35;;;;;;;12.60;9.23;;;4.40;99.90;;;;;;4993321;28;20421;-70
2021/12/07 03:59:02;;;;;;;11.50;9.40;;;4.50;99.90;;;;;;4990960;28;20178;-70
2021/12/07 04:01:27;;;;;;;12.93;9.83;;;4.50;99.90;;;;;;4992456;28;20664;-70
2021/12/07 04:03:54;;;;;;;13.50;10.33;;;4.60;99.90;;;;;;4992286;28;20425;-70
2021/12/07 04:06:21;;;;;;;12.87;10.50;;;4.60;99.90;;;;;;4991937;28;20180;-70
2021/12/07 04:08:47;;;;;;;17.00;10.50;;;4.60;99.90;;;;;;4992418;28;20424;-69
2021/12/07 04:11:13;;;;;;;18.90;10.97;;;4.60;99.90;;;;;;4992259;28;20794;-69
2021/12/07 04:13:40;;;;;;;12.50;9.80;;;4.70;99.90;;;;;;4992061;28;20294;-69
2021/12/07 04:16:07;;;;;;;16.87;9.80;;;4.70;99.90;;;;;;4993253;28;20507;-70
2021/12/07 04:18:34;;;;;;;20.80;11.43;;;4.80;99.90;;;;;;4992171;28;20972;-69
2021/12/07 04:21:01;;;;;;;14.87;11.20;;;4.70;99.90;;;;;;4992353;28;20430;-70
2021/12/07 04:23:27;;;;;;;17.37;11.30;;;4.50;99.90;;;;;;4992022;28;20413;-70
2021/12/07 04:25:53;;;;;;;18.10;12.30;;;4.40;99.90;;;;;;4991897;28;20788;-69
2021/12/07 04:28:18;;;;;;;18.60;12.27;;;4.40;99.90;;;;;;4983233;28;20475;-69
2021/12/07 04:30:44;;;;;;;20.87;13.67;;;4.40;99.90;;;;;;4985967;28;20225;-70
2021/12/07 04:33:12;;;;;;;19.97;12.70;;;4.40;99.90;;;;;;4991093;28;20239;-70
2021/12/07 04:35:40;;;;;;;17.90;13.17;;;4.40;99.90;;;;;;4990475;28;20468;-69
2021/12/07 04:38:06;;;;;;;21.03;12.60;;;4.50;99.90;;;;;;4991852;28;20484;-70
2021/12/07 04:40:32;;;;;;;16.30;12.73;;;4.50;99.90;;;;;;4990010;28;20459;-69
2021/12/07 04:42:58;;;;;;;19.60;12.27;;;4.50;99.90;;;;;;4991694;28;20204;-69
2021/12/07 04:45:48;;;;;;;20.13;15.10;;;4.50;99.90;;;;;;4990250;28;20437;-69
2021/12/07 04:59:05;;;;;;;19.70;13.97;;;4.60;99.90;;;;;;4995615;28;20527;-69
2021/12/07 05:01:32;;;;;;;28.80;16.07;;;4.70;99.90;;;;;;4994742;28;20442;-70
2021/12/07 05:04:01;;;;;;;22.90;15.20;;;4.80;99.90;;;;;;4994981;28;20470;-71
2021/12/07 05:06:30;;;;;;;35.30;16.57;;;4.90;99.90;;;;;;4994579;28;20942;-70
2021/12/07 05:09:02;;;;;;;23.37;14.57;;;4.80;99.90;;;;;;4995116;28;20462;-70
2021/12/07 05:12:02;;;;;;;28.40;14.40;;;4.70;99.90;;;;;;4995069;28;20450;-70
2021/12/07 05:14:24;;;;;;;29.20;15.20;;;4.70;99.90;;;;;;4993850;28;20564;-70
2021/12/07 05:17:03;;;;;;;19.50;14.33;;;4.80;99.90;;;;;;4994536;28;20438;-70
2021/12/07 05:38:22;;;;;;;20.60;11.87;;;4.90;99.90;;;;;;4995713;28;20910;-70
2021/12/07 05:40:47;;;;;;;21.93;12.37;;;4.80;99.90;;;;;;4995257;28;20549;-69
2021/12/07 05:43:13;;;;;;;24.63;12.47;;;4.90;99.90;;;;;;4996620;28;20190;-70
2021/12/07 05:45:39;;;;;;;16.27;10.53;;;4.90;99.90;;;;;;4995107;28;20210;-69
2021/12/07 05:48:06;;;;;;;25.57;11.40;;;5.00;99.90;;;;;;4994308;28;20178;-70
2021/12/07 05:50:35;;;;;;;17.60;10.93;;;4.90;99.90;;;;;;4995228;28;20900;-70
2021/12/07 05:53:02;;;;;;;18.20;11.07;;;5.00;99.90;;;;;;4996742;28;20935;-70
2021/12/07 05:55:28;;;;;;;19.50;11.80;;;5.00;99.90;;;;;;4995471;28;20431;-69
2021/12/07 05:57:55;;;;;;;22.50;11.47;;;5.10;99.90;;;;;;4989829;28;20979;-70
2021/12/07 06:00:27;;;;;;;20.83;12.00;;;5.10;99.90;;;;;;4995059;28;20216;-70
2021/12/07 06:02:55;;;;;;;24.33;11.73;;;5.10;99.90;;;;;;4998628;28;20466;-70
2021/12/07 06:05:22;;;;;;;23.23;12.83;;;5.10;99.90;;;;;;4994218;28;20443;-69
2021/12/07 06:07:48;;;;;;;29.50;13.20;;;5.10;99.90;;;;;;4991416;28;20478;-70
2021/12/07 06:10:13;;;;;;;17.93;11.97;;;5.20;99.90;;;;;;4993418;28;20454;-70
2021/12/07 06:12:39;;;;;;;16.57;10.70;;;5.20;99.90;;;;;;4993024;28;20977;-71
2021/12/07 06:15:06;;;;;;;19.90;12.20;;;5.30;99.90;;;;;;5011532;28;20197;-69
2021/12/07 06:17:31;;;;;;;22.23;11.93;;;5.20;99.90;;;;;;4997714;28;20196;-70
2021/12/07 06:19:57;;;;;;;18.13;11.30;;;5.20;99.90;;;;;;4995761;28;20432;-69
2021/12/07 06:22:22;;;;;;;17.00;9.83;;;5.30;99.90;;;;;;4993643;28;20569;-69
2021/12/07 06:24:48;;;;;;;18.63;9.90;;;5.30;99.90;;;;;;4999337;28;20714;-69
2021/12/07 06:27:14;;;;;;;14.57;9.87;;;5.30;99.90;;;;;;4992777;28;20277;-70
2021/12/07 06:29:39;;;;;;;13.23;9.07;;;5.20;99.90;;;;;;4993216;28;20227;-69
2021/12/07 06:32:06;;;;;;;19.63;9.90;;;5.30;99.90;;;;;;4992918;28;20219;-69
2021/12/07 06:34:32;;;;;;;12.57;8.30;;;5.30;99.90;;;;;;4995070;28;20289;-69
2021/12/07 06:36:59;;;;;;;19.50;9.03;;;5.30;99.90;;;;;;4993427;28;20459;-70
2021/12/07 06:39:24;;;;;;;24.93;10.60;;;5.30;99.90;;;;;;4993700;28;20458;-70
2021/12/07 06:41:50;;;;;;;22.40;9.97;;;5.30;99.90;;;;;;5005714;28;20459;-70
2021/12/07 06:44:15;;;;;;;14.50;9.13;;;5.30;99.90;;;;;;5003583;28;20215;-70
2021/12/07 06:46:41;;;;;;;12.27;8.27;;;5.30;99.90;;;;;;5005740;28;20196;-70
2021/12/07 06:49:07;;;;;;;19.90;9.17;;;5.30;99.90;;;;;;5004534;28;20226;-70
2021/12/07 06:51:32;;;;;;;16.83;8.53;;;5.30;99.90;;;;;;5013557;28;20446;-71
2021/12/07 06:53:58;;;;;;;16.93;8.10;;;5.40;99.90;;;;;;5021728;28;20223;-71
2021/12/07 06:56:28;;;;;;;16.90;8.13;;;5.40;99.90;;;;;;5013881;28;20274;-70
2021/12/07 06:58:53;;;;;;;15.97;8.10;;;5.40;99.90;;;;;;5013543;28;20245;-70
2021/12/07 07:01:19;;;;;;;14.10;8.20;;;5.30;99.90;;;;;;5011739;28;20446;-71
2021/12/07 07:03:45;;;;;;;14.13;8.90;;;5.30;99.90;;;;;;5021040;28;20210;-70
2021/12/07 07:06:11;;;;;;;13.40;8.17;;;5.30;99.90;;;;;;5025457;28;20256;-70
2021/12/07 07:08:36;;;;;;;16.33;8.17;;;5.30;99.90;;;;;;5027842;28;20207;-70
2021/12/07 07:11:04;;;;;;;17.47;7.53;;;5.20;99.90;;;;;;5027636;28;20446;-69
2021/12/07 07:13:31;;;;;;;12.60;7.70;;;5.20;99.90;;;;;;5025740;28;20266;-70
2021/12/07 07:15:56;;;;;;;16.87;7.53;;;5.20;99.90;;;;;;5027575;28;20408;-71
2021/12/07 07:18:22;;;;;;;11.97;7.40;;;5.20;99.90;;;;;;5028027;28;20535;-70
2021/12/07 07:20:47;;;;;;;11.80;9.30;;;5.20;99.90;;;;;;5021193;28;20191;-70
2021/12/07 07:23:13;;;;;;;21.80;8.97;;;5.20;99.90;;;;;;5005853;28;20183;-69
2021/12/07 07:25:38;;;;;;;15.70;8.60;;;5.20;99.90;;;;;;4994016;28;20219;-69
2021/12/07 07:28:04;;;;;;;11.57;9.20;;;5.20;99.90;;;;;;4993815;28;20197;-71
2021/12/07 07:30:30;;;;;;;14.03;9.70;;;5.20;99.90;;;;;;4994398;28;20267;-69
2021/12/07 07:32:55;;;;;;;19.37;9.50;;;5.30;99.90;;;;;;4994862;28;20200;-68
2021/12/07 07:35:21;;;;;;;13.63;9.70;;;5.20;99.90;;;;;;4993992;28;20180;-70
2021/12/07 07:37:47;;;;;;;16.97;10.30;;;5.20;99.90;;;;;;4993868;28;20271;-69
2021/12/07 07:40:17;;;;;;;18.23;10.23;;;5.20;99.90;;;;;;4994062;28;20442;-70
2021/12/07 07:42:43;;;;;;;15.10;11.20;;;5.20;99.90;;;;;;4996331;28;20300;-70
2021/12/07 07:45:09;;;;;;;13.40;9.23;;;5.30;99.90;;;;;;5007684;28;20442;-70
2021/12/07 07:47:35;;;;;;;20.70;10.63;;;5.30;99.90;;;;;;5014461;28;20453;-70
2021/12/07 07:50:00;;;;;;;20.03;10.10;;;5.30;99.90;;;;;;5014148;28;20406;-70
2021/12/07 07:52:26;;;;;;;13.70;10.70;;;5.30;99.90;;;;;;5013548;28;20207;-70
2021/12/07 07:54:52;;;;;;;17.67;10.70;;;5.30;99.90;;;;;;5012145;28;20516;-69
2021/12/07 07:57:17;;;;;;;17.70;11.23;;;5.30;99.90;;;;;;5013258;28;20175;-70
2021/12/07 07:59:43;;;;;;;19.33;11.20;;;5.30;99.90;;;;;;5013537;28;20226;-70
2021/12/07 08:02:09;;;;;;;19.93;10.97;;;5.30;99.90;;;;;;5013590;28;20702;-69
2021/12/07 08:04:34;;;;;;;16.47;10.60;;;5.40;99.90;;;;;;5013512;28;20238;-69
2021/12/07 08:07:00;;;;;;;20.50;10.13;;;5.40;99.90;;;;;;5011620;28;20183;-71
2021/12/07 08:09:26;;;;;;;17.73;10.50;;;5.40;99.90;;;;;;5013453;28;20186;-69
2021/12/07 08:11:52;;;;;;;18.77;10.27;;;5.40;99.90;;;;;;5012977;28;20808;-70
2021/12/07 08:14:18;;;;;;;14.23;9.97;;;5.40;99.90;;;;;;5011968;28;20179;-70
2021/12/07 08:16:45;;;;;;;19.03;10.30;;;5.30;99.90;;;;;;5002384;28;20190;-71
2021/12/07 08:19:11;;;;;;;16.07;9.73;;;5.40;99.90;;;;;;4993254;28;20495;-70
2021/12/07 08:21:36;;;;;;;15.93;10.53;;;5.40;99.90;;;;;;4991898;28;20451;-71
2021/12/07 08:24:03;;;;;;;20.37;10.20;;;5.40;99.90;;;;;;4993372;28;20176;-70
2021/12/07 08:26:29;;;;;;;15.50;9.60;;;5.40;99.90;;;;;;4997497;28;20180;-71
2021/12/07 08:28:56;;;;;;;18.30;9.73;;;5.40;99.90;;;;;;4996562;28;20934;-71
2021/12/07 08:31:23;;;;;;;16.30;10.57;;;5.50;99.90;;;;;;4997086;28;20207;-69
2021/12/07 08:33:48;;;;;;;19.60;9.40;;;5.50;99.90;;;;;;4996917;28;20546;-70
2021/12/07 08:36:14;;;;;;;16.20;8.73;;;5.40;99.90;;;;;;4997356;28;20406;-70
2021/12/07 08:38:40;;;;;;;13.67;8.63;;;5.50;99.90;;;;;;5009458;28;20172;-72
2021/12/07 08:41:06;;;;;;;13.30;8.90;;;5.40;99.90;;;;;;5005920;28;20453;-71
2021/12/07 08:43:34;;;;;;;14.00;9.10;;;5.30;99.90;;;;;;4997130;28;20502;-71
2021/12/07 08:46:01;;;;;;;17.77;9.73;;;5.40;99.90;;;;;;4997101;28;20490;-72
2021/12/07 08:48:27;;;;;;;16.30;9.73;;;5.40;99.90;;;;;;4996585;28;20421;-69
2021/12/07 08:50:54;;;;;;;12.77;9.07;;;5.50;99.90;;;;;;5000962;28;20438;-70
2021/12/07 08:53:22;;;;;;;13.73;8.80;;;5.50;99.90;;;;;;5015826;28;20450;-71
2021/12/07 09:01:25;;;;;;;13.37;9.20;;;5.50;99.90;;;;;;5015270;28;20454;-70
2021/12/07 09:03:52;;;;;;;15.57;9.80;;;5.40;99.90;;;;;;5015960;28;20793;-70
2021/12/07 09:06:18;;;;;;;14.03;9.33;;;5.50;99.90;;;;;;5014667;28;20422;-70
2021/12/07 09:08:44;;;;;;;16.57;9.47;;;5.50;99.90;;;;;;5016011;28;20426;-70
2021/12/07 09:11:11;;;;;;;14.57;8.30;;;5.50;99.90;;;;;;5015917;28;20870;-70
2021/12/07 09:13:37;;;;;;;22.10;9.00;;;5.40;99.90;;;;;;5013966;28;20604;-70
2021/12/07 09:16:04;;;;;;;14.40;8.93;;;5.30;99.90;;;;;;5010461;28;20425;-70
2021/12/07 09:18:30;;;;;;;13.07;9.50;;;5.40;99.90;;;;;;4996889;28;20411;-70
2021/12/07 09:20:56;;;;;;;19.03;10.00;;;5.30;99.90;;;;;;4996562;28;20431;-69
2021/12/07 09:23:22;;;;;;;13.00;8.77;;;5.30;99.90;;;;;;4997792;28;20445;-70
2021/12/07 09:25:48;;;;;;;17.57;9.63;;;5.30;99.90;;;;;;4996625;28;20608;-72
2021/12/07 09:28:13;;;;;;;13.20;8.67;;;5.40;99.90;;;;;;4996061;28;20403;-70
2021/12/07 09:30:39;;;;;;;17.30;8.00;;;5.50;99.90;;;;;;4997435;28;20176;-70
2021/12/07 09:33:05;;;;;;;11.97;7.07;;;5.40;99.90;;;;;;4997448;28;20650;-70
2021/12/07 09:35:31;;;;;;;12.00;7.20;;;5.50;99.90;;;;;;4996455;28;20451;-70
2021/12/07 09:37:57;;;;;;;13.80;7.30;;;5.50;99.90;;;;;;4995897;28;20169;-71
2021/12/07 09:40:28;;;;;;;15.90;6.33;;;5.40;99.90;;;;;;4997349;28;20469;-71
2021/12/07 09:42:53;;;;;;;8.80;6.90;;;5.40;99.90;;;;;;5007338;28;20208;-70
2021/12/07 09:45:19;;;;;;;13.73;7.80;;;5.30;99.90;;;;;;5013200;28;21038;-71
2021/12/07 09:47:46;;;;;;;14.13;7.23;;;5.40;99.90;;;;;;5016307;28;20199;-70
2021/12/07 09:50:15;;;;;;;12.67;8.27;;;5.40;99.90;;;;;;5017231;28;20407;-70
2021/12/07 09:52:45;;;;;;;15.73;9.03;;;5.50;99.90;;;;;;5016829;28;20601;-70
2021/12/07 09:55:12;;;;;;;16.93;9.53;;;5.50;99.90;;;;;;5015675;28;20505;-70
2021/12/07 09:57:37;;;;;;;13.90;8.93;;;5.50;99.90;;;;;;5015913;28;20423;-70
2021/12/07 10:00:11;;;;;;;21.47;10.90;;;5.60;99.90;;;;;;5015989;28;20415;-71
2021/12/07 10:02:37;;;;;;;17.90;9.47;;;5.60;99.90;;;;;;5016548;28;20187;-71
2021/12/07 10:05:04;;;;;;;18.07;9.70;;;5.60;99.90;;;;;;5015705;28;20410;-69
2021/12/07 10:07:30;;;;;;;17.47;9.70;;;5.70;99.90;;;;;;4977373;28;20417;-70
2021/12/07 10:09:56;;;;;;;13.77;9.37;;;5.80;99.90;;;;;;4976990;28;20775;-68
2021/12/07 10:12:23;;;;;;;16.43;9.60;;;5.80;99.90;;;;;;4977044;28;20296;-71
2021/12/07 10:14:50;;;;;;;19.10;10.23;;;5.80;99.90;;;;;;4977466;28;20176;-69
2021/12/07 10:17:22;;;;;;;17.40;8.60;;;5.80;99.90;;;;;;5004559;28;20427;-70
2021/12/07 10:19:48;;;;;;;13.47;8.60;;;5.80;99.90;;;;;;5017491;28;20413;-71
2021/12/07 10:22:21;;;;;;;15.50;9.17;;;5.90;99.90;;;;;;5016261;28;20902;-70
2021/12/07 10:24:54;;;;;;;10.77;8.57;;;5.90;99.90;;;;;;5016836;28;20864;-70
2021/12/07 10:27:43;;;;;;;15.37;9.73;;;5.90;99.90;;;;;;5015056;28;20430;-69
2021/12/07 10:30:17;;;;;;;15.70;9.27;;;5.90;99.90;;;;;;5019459;28;20475;-70
2021/12/07 10:32:55;;;;;;;22.40;9.67;;;6.00;99.90;;;;;;5020275;28;20474;-70
2021/12/07 10:35:35;;;;;;;16.37;10.77;;;6.10;99.90;;;;;;5026948;28;20426;-69
2021/12/07 10:38:11;;;;;;;14.30;9.20;;;6.10;99.90;;;;;;5029477;28;20468;-71
2021/12/07 10:40:55;;;;;;;15.00;9.57;;;6.20;99.90;;;;;;5022043;28;20422;-71
2021/12/07 10:43:41;;;;;;;11.80;10.03;;;6.30;99.90;;;;;;5020474;22;20939;-71
2021/12/07 10:46:30;;;;;;;16.63;10.50;;;6.30;99.90;;;;;;5002154;28;20416;-71
2021/12/07 10:49:17;;;;;;;17.50;10.50;;;6.50;99.90;;;;;;4993736;28;20400;-70
2021/12/07 10:51:57;;;;;;;14.80;10.07;;;6.50;99.90;;;;;;4982924;28;20960;-70
2021/12/07 10:54:23;;;;;;;13.23;9.10;;;6.60;99.90;;;;;;4974938;28;20479;-71
2021/12/07 10:56:50;;;;;;;14.40;9.60;;;6.60;99.90;;;;;;4974715;28;20416;-70
2021/12/07 10:59:16;;;;;;;14.10;8.53;;;6.60;99.90;;;;;;4975254;28;20796;-70
2021/12/07 11:01:46;;;;;;;14.90;9.10;;;6.80;99.90;;;;;;4975549;28;20440;-69
2021/12/07 11:04:28;;;;;;;16.50;9.43;;;6.90;99.90;;;;;;4974114;28;20441;-70
2021/12/07 11:07:20;;;;;;;12.80;8.93;;;6.90;99.90;;;;;;4973689;28;20426;-69
2021/12/07 11:09:50;;;;;;;14.40;10.10;;;6.90;99.90;;;;;;4974315;28;20408;-70
2021/12/07 11:12:19;;;;;;;12.50;9.20;;;6.90;99.90;;;;;;4975303;28;20448;-70
2021/12/07 11:14:52;;;;;;;16.07;9.63;;;6.90;99.90;;;;;;4974001;28;20520;-68
2021/12/07 11:17:32;;;;;;;14.27;9.77;;;7.00;99.90;;;;;;5006022;28;20430;-71
2021/12/07 11:20:00;;;;;;;14.47;8.70;;;7.00;99.90;;;;;;5014645;28;20387;-70
2021/12/07 11:22:30;;;;;;;13.90;8.90;;;7.10;99.90;;;;;;5013002;28;20973;-69
2021/12/07 11:24:57;;;;;;;17.20;9.93;;;7.00;99.90;;;;;;4979668;28;20972;-69
2021/12/07 11:30:21;;;;;;;14.93;9.73;;;7.00;99.90;;;;;;4980973;28;20444;-70
2021/12/07 11:32:55;;;;;;;13.93;10.10;;;7.00;99.90;;;;;;4982234;28;20467;-69
2021/12/07 11:35:34;;;;;;;17.70;10.00;;;6.90;99.90;;;;;;4982674;28;20417;-68
2021/12/07 11:38:05;;;;;;;15.50;9.43;;;7.00;99.90;;;;;;4983302;28;20410;-70
2021/12/07 11:40:35;;;;;;;15.93;9.03;;;7.00;99.90;;;;;;4985422;28;20405;-69
2021/12/07 11:43:14;;;;;;;12.80;9.20;;;7.10;99.90;;;;;;4977994;28;20535;-70
2021/12/07 11:45:44;;;;;;;15.83;10.20;;;7.10;99.90;;;;;;4990303;28;20538;-70
2021/12/07 11:48:10;;;;;;;13.73;9.47;;;7.10;99.90;;;;;;4994925;28;20469;-70
2021/12/07 11:50:44;;;;;;;16.50;9.50;;;7.10;99.90;;;;;;4995513;28;20820;-70
2021/12/07 11:53:14;;;;;;;17.30;9.80;;;7.10;99.90;;;;;;4994273;28;20490;-70
2021/12/07 11:55:44;;;;;;;11.40;8.07;;;7.10;99.90;;;;;;4993353;28;20697;-70
2021/12/07 11:58:11;;;;;;;13.37;8.47;;;7.20;99.90;;;;;;5009433;28;20411;-69
2021/12/07 12:00:41;;;;;;;14.60;7.20;;;7.20;99.90;;;;;;4993060;28;21144;-71
2021/12/07 12:03:12;;;;;;;13.93;6.97;;;7.20;99.90;;;;;;4992413;28;20453;-71
2021/12/07 12:05:40;;;;;;;13.50;7.00;;;7.20;99.90;;;;;;4993464;28;20423;-71
2021/12/07 12:08:09;;;;;;;14.00;6.30;;;7.30;99.90;;;;;;4994148;28;20779;-70
2021/12/07 12:10:37;;;;;;;8.17;5.53;;;7.30;99.90;;;;;;4975633;28;20977;-69
2021/12/07 12:13:17;;;;;;;8.50;6.03;;;7.30;99.90;;;;;;4992734;28;20490;-71
2021/12/07 12:15:52;;;;;;;12.53;5.53;;;7.20;99.90;;;;;;4994308;28;20494;-70
2021/12/07 12:18:20;;;;;;;11.97;7.00;;;7.20;99.90;;;;;;4998700;28;20880;-69
2021/12/07 12:21:14;;;;;;;11.97;7.10;;;7.20;99.90;;;;;;4987214;28;20451;-69
2021/12/07 12:23:55;;;;;;;11.13;6.50;;;7.20;99.90;;;;;;5001366;28;20545;-69
2021/12/07 12:26:24;;;;;;;16.83;7.80;;;7.20;99.90;;;;;;4981471;28;20458;-70
2021/12/07 12:28:50;;;;;;;12.30;6.87;;;7.20;99.90;;;;;;4988576;28;20559;-70
2021/12/07 12:31:18;;;;;;;13.33;6.87;;;7.30;99.90;;;;;;4989515;28;20844;-70
2021/12/07 12:33:52;;;;;;;16.60;6.20;;;7.40;99.90;;;;;;4987546;28;20497;-69
2021/12/07 12:36:23;;;;;;;11.60;5.73;;;7.40;99.90;;;;;;4981243;28;20452;-72
2021/12/07 12:39:03;;;;;;;8.70;5.47;;;7.40;99.90;;;;;;4986753;28;21167;-71
2021/12/07 12:41:29;;;;;;;11.00;6.20;;;7.40;99.90;;;;;;4976923;28;20448;-67
2021/12/07 12:43:59;;;;;;;11.90;6.00;;;7.50;99.90;;;;;;4988618;28;21089;-69
2021/12/07 12:46:31;;;;;;;12.07;5.53;;;7.50;99.90;;;;;;4990230;28;20435;-70
2021/12/07 12:49:07;;;;;;;13.73;5.40;;;7.50;99.90;;;;;;4988882;28;20575;-71
2021/12/07 12:51:53;;;;;;;16.13;4.50;;;7.50;99.90;;;;;;4982175;28;20446;-69
2021/12/07 12:54:19;;;;;;;10.80;5.27;;;7.40;99.90;;;;;;4970262;28;20487;-69
2021/12/07 12:56:45;;;;;;;10.53;4.87;;;7.30;99.90;;;;;;4982631;28;20445;-69
2021/12/07 12:59:12;;;;;;;12.67;4.83;;;7.30;99.90;;;;;;4990156;28;20435;-69
2021/12/07 13:01:45;;;;;;;7.97;3.77;;;7.30;99.90;;;;;;4988637;28;20478;-69
2021/12/07 13:04:22;;;;;;;10.47;3.97;;;7.20;99.90;;;;;;4992350;28;20444;-71
2021/12/07 13:06:54;;;;;;;7.10;4.23;;;7.20;99.90;;;;;;4990908;28;20432;-68
2021/12/07 13:09:20;;;;;;;6.60;4.03;;;7.20;99.90;;;;;;4991572;28;20447;-69
2021/12/07 13:11:49;;;;;;;7.70;3.77;;;7.20;99.90;;;;;;4991277;28;20987;-68
2021/12/07 13:14:21;;;;;;;11.50;4.17;;;7.10;99.90;;;;;;4992741;28;20302;-70
2021/12/07 13:16:52;;;;;;;5.63;4.03;;;7.00;99.90;;;;;;5005815;28;21078;-69
2021/12/07 13:19:18;;;;;;;6.57;3.70;;;7.00;99.90;;;;;;5014830;28;20439;-69
2021/12/07 13:21:48;;;;;;;9.87;5.00;;;7.00;99.90;;;;;;5014802;28;20965;-69
2021/12/07 13:24:30;;;;;;;9.00;4.47;;;7.10;99.90;;;;;;4986022;28;20882;-69
2021/12/07 13:26:55;;;;;;;6.20;3.37;;;7.10;99.90;;;;;;4989660;28;20446;-70
2021/12/07 13:29:26;;;;;;;6.80;4.23;;;7.00;99.90;;;;;;4994495;28;20527;-69
2021/12/07 13:31:56;;;;;;;8.47;3.57;;;7.10;99.90;;;;;;4995478;28;20659;-70
2021/12/07 13:34:29;;;;;;;6.00;3.63;;;7.10;99.90;;;;;;4993471;28;20451;-70
2021/12/07 13:36:59;;;;;;;6.00;3.10;;;7.10;99.90;;;;;;4995007;28;20839;-72
2021/12/07 13:39:24;;;;;;;3.20;2.90;;;7.10;99.90;;;;;;4995959;28;20419;-69
2021/12/07 13:42:07;;;;;;;6.03;3.40;;;7.10;99.90;;;;;;4996502;28;20412;-69
2021/12/07 13:45:17;;;;;;;7.90;3.60;;;7.10;99.90;;;;;;4995386;28;20215;-70
2021/12/07 13:47:44;;;;;;;5.20;3.23;;;7.10;99.90;;;;;;4936149;29;20429;-69
2021/12/07 13:50:16;;;;;;;5.80;3.20;;;7.00;99.90;;;;;;4936122;29;20791;-69
2021/12/07 13:52:49;;;;;;;9.83;4.50;;;7.00;99.90;;;;;;4935368;29;20449;-70
2021/12/07 13:55:18;;;;;;;5.13;2.90;;;7.00;99.90;;;;;;4933338;29;20430;-71
2021/12/07 13:57:46;;;;;;;4.53;3.03;;;6.90;99.90;;;;;;4935012;29;20425;-70
2021/12/07 14:00:18;;;;;;;3.23;2.93;;;6.80;99.90;;;;;;4934919;29;20473;-70
2021/12/07 14:02:55;;;;;;;4.03;2.30;;;6.80;99.90;;;;;;4935192;29;20429;-71
2021/12/07 14:05:24;;;;;;;4.33;3.07;;;6.80;99.90;;;;;;4933422;29;20489;-70
2021/12/07 14:07:51;;;;;;;5.50;3.40;;;6.80;99.90;;;;;;4934921;29;20426;-70
2021/12/07 14:10:26;;;;;;;4.33;2.87;;;6.70;99.90;;;;;;4934938;29;20567;-71
2021/12/07 14:12:54;;;;;;;6.27;2.67;;;6.70;99.90;;;;;;4934625;29;20821;-69
2021/12/07 14:15:21;;;;;;;7.03;3.17;;;6.60;99.90;;;;;;4935510;29;20573;-68
2021/12/07 14:17:50;;;;;;;5.13;2.83;;;6.60;99.90;;;;;;4923329;29;20918;-69
2021/12/07 14:20:37;;;;;;;4.63;2.80;;;6.60;99.90;;;;;;4915876;29;20651;-69
2021/12/07 14:23:23;;;;;;;4.80;2.70;;;6.50;99.90;;;;;;4975662;28;20472;-70
2021/12/07 14:25:49;;;;;;;4.90;2.73;;;6.40;99.90;;;;;;4975651;28;20520;-70
2021/12/07 14:28:34;;;;;;;3.23;2.10;;;6.40;99.90;;;;;;4977600;28;20511;-69
2021/12/07 14:31:12;;;;;;;5.40;2.23;;;6.40;99.90;;;;;;4975992;28;20172;-69
2021/12/07 14:33:39;;;;;;;4.00;2.53;;;6.40;99.90;;;;;;4975898;28;21055;-69
2021/12/07 14:36:05;;;;;;;3.70;2.43;;;6.30;99.90;;;;;;4976131;28;20420;-69